createdAt,value
2018-02-20T00:00:32.389Z,1037.94
2018-02-20T00:01:32.371Z,1037.94
2018-02-20T00:02:32.353Z,1037.92
2018-02-20T00:03:32.346Z,1037.94
2018-02-20T00:04:32.320Z,1037.95
2018-02-20T00:05:32.303Z,1037.95
2018-02-20T00:06:32.286Z,1037.93
2018-02-20T00:07:32.268Z,1037.95
2018-02-20T00:08:32.251Z,1037.93
2018-02-20T00:09:32.234Z,1037.93
2018-02-20T00:10:32.219Z,1037.92
2018-02-20T00:11:32.203Z,1037.93
2018-02-20T00:12:32.183Z,1037.96
2018-02-20T00:13:32.168Z,1037.92
2018-02-20T00:14:32.152Z,1037.98
2018-02-20T00:15:32.136Z,1037.97
2018-02-20T00:16:32.118Z,1037.95
2018-02-20T00:17:32.102Z,1037.97
2018-02-20T00:18:32.085Z,1037.99
2018-02-20T00:19:32.070Z,1038
2018-02-20T00:20:32.061Z,1038.01
2018-02-20T00:21:32.037Z,1037.99
2018-02-20T00:22:32.017Z,1037.98
2018-02-20T00:23:31.999Z,1037.99
2018-02-20T00:24:31.984Z,1038.01
2018-02-20T00:25:31.966Z,1038
2018-02-20T00:26:31.950Z,1037.99
2018-02-20T00:27:31.933Z,1037.98
2018-02-20T00:28:31.920Z,1037.98
2018-02-20T00:29:31.899Z,1037.93
2018-02-20T00:30:31.882Z,1037.99
2018-02-20T00:31:31.866Z,1038
2018-02-20T00:32:31.850Z,1037.98
2018-02-20T00:33:31.834Z,1038.02
2018-02-20T00:34:31.815Z,1038.01
2018-02-20T00:35:31.800Z,1038.02
2018-02-20T00:36:31.782Z,1038.03
2018-02-20T00:37:31.765Z,1038.01
2018-02-20T00:38:31.747Z,1038
2018-02-20T00:39:31.731Z,1037.97
2018-02-20T00:40:31.719Z,1037.95
2018-02-20T00:41:31.705Z,1037.99
2018-02-20T00:42:31.679Z,1038
2018-02-20T00:43:31.663Z,1038
2018-02-20T00:44:31.647Z,1037.98
2018-02-20T00:45:31.629Z,1037.98
2018-02-20T00:46:31.613Z,1037.98
2018-02-20T00:47:31.596Z,1037.99
2018-02-20T00:48:31.580Z,1037.99
2018-02-20T00:49:31.561Z,1037.99
2018-02-20T00:50:31.795Z,1038
2018-02-20T00:51:31.529Z,1038
2018-02-20T00:52:31.512Z,1038.03
2018-02-20T00:53:31.494Z,1038.02
2018-02-20T00:54:31.480Z,1038.04
2018-02-20T00:55:31.461Z,1038.09
2018-02-20T00:56:31.443Z,1038.05
2018-02-20T00:57:31.428Z,1038.05
2018-02-20T00:58:31.410Z,1038.03
2018-02-20T00:59:31.394Z,1038.07
2018-02-20T01:00:31.376Z,1038.05
2018-02-20T01:01:31.359Z,1038.03
2018-02-20T01:02:31.343Z,1038
2018-02-20T01:03:31.325Z,1038.05
2018-02-20T01:04:31.307Z,1038.01
2018-02-20T01:05:31.292Z,1038.07
2018-02-20T01:06:31.276Z,1037.99
2018-02-20T01:07:31.256Z,1038.02
2018-02-20T01:08:31.241Z,1038
2018-02-20T01:09:31.224Z,1037.98
2018-02-20T01:10:31.207Z,1038
2018-02-20T01:11:31.189Z,1037.96
2018-02-20T01:12:31.172Z,1037.99
2018-02-20T01:13:31.157Z,1037.97
2018-02-20T01:14:31.139Z,1037.96
2018-02-20T01:15:31.127Z,1037.97
2018-02-20T01:16:31.105Z,1037.93
2018-02-20T01:17:31.089Z,1037.89
2018-02-20T01:18:31.070Z,1037.92
2018-02-20T01:19:31.054Z,1037.9
2018-02-20T01:20:31.037Z,1037.85
2018-02-20T01:21:31.020Z,1037.89
2018-02-20T01:22:31.003Z,1037.84
2018-02-20T01:23:30.986Z,1037.8
2018-02-20T01:24:30.969Z,1037.79
2018-02-20T01:25:30.952Z,1037.78
2018-02-20T01:26:30.935Z,1037.81
2018-02-20T01:27:30.927Z,1037.79
2018-02-20T01:28:30.903Z,1037.75
2018-02-20T01:29:30.886Z,1037.76
2018-02-20T01:30:30.869Z,1037.73
2018-02-20T01:31:30.851Z,1037.73
2018-02-20T01:32:30.837Z,1037.73
2018-02-20T01:33:30.819Z,1037.74
2018-02-20T01:34:30.807Z,1037.7
2018-02-20T01:35:30.786Z,1037.69
2018-02-20T01:36:30.768Z,1037.69
2018-02-20T01:37:30.753Z,1037.65
2018-02-20T01:38:30.737Z,1037.67
2018-02-20T01:39:30.719Z,1037.65
2018-02-20T01:40:30.701Z,1037.67
2018-02-20T01:41:30.685Z,1037.68
2018-02-20T01:42:30.668Z,1037.67
2018-02-20T01:43:30.651Z,1037.68
2018-02-20T01:44:30.636Z,1037.64
2018-02-20T01:45:30.617Z,1037.7
2018-02-20T01:46:30.602Z,1037.69
2018-02-20T01:47:30.584Z,1037.67
2018-02-20T01:48:30.567Z,1037.63
2018-02-20T01:49:30.550Z,1037.62
2018-02-20T01:50:30.538Z,1037.64
2018-02-20T01:51:30.517Z,1037.64
2018-02-20T01:52:30.500Z,1037.63
2018-02-20T01:53:30.484Z,1037.6
2018-02-20T01:54:30.467Z,1037.65
2018-02-20T01:55:30.450Z,1037.57
2018-02-20T01:56:30.433Z,1037.58
2018-02-20T01:57:30.416Z,1037.61
2018-02-20T01:58:30.400Z,1037.61
2018-02-20T01:59:30.383Z,1037.6
2018-02-20T02:00:30.366Z,1037.62
2018-02-20T02:01:30.350Z,1037.57
2018-02-20T02:02:30.334Z,1037.68
2018-02-20T02:03:30.317Z,1037.63
2018-02-20T02:04:30.300Z,1037.66
2018-02-20T02:05:30.285Z,1037.63
2018-02-20T02:06:30.266Z,1037.7
2018-02-20T02:07:30.249Z,1037.69
2018-02-20T02:08:30.234Z,1037.68
2018-02-20T02:09:30.217Z,1037.68
2018-02-20T02:10:30.199Z,1037.7
2018-02-20T02:11:30.190Z,1037.71
2018-02-20T02:12:30.166Z,1037.68
2018-02-20T02:13:30.150Z,1037.69
2018-02-20T02:14:30.134Z,1037.69
2018-02-20T02:15:30.116Z,1037.67
2018-02-20T02:16:30.102Z,1037.68
2018-02-20T02:17:30.083Z,1037.67
2018-02-20T02:18:30.066Z,1037.69
2018-02-20T02:19:30.052Z,1037.64
2018-02-20T02:20:30.046Z,1037.69
2018-02-20T02:21:30.016Z,1037.66
2018-02-20T02:22:30.000Z,1037.69
2018-02-20T02:23:29.984Z,1037.67
2018-02-20T02:24:29.966Z,1037.65
2018-02-20T02:25:29.948Z,1037.63
2018-02-20T02:26:29.933Z,1037.61
2018-02-20T02:27:29.915Z,1037.65
2018-02-20T02:28:29.898Z,1037.6
2018-02-20T02:29:29.882Z,1037.58
2018-02-20T02:30:29.866Z,1037.61
2018-02-20T02:31:29.854Z,1037.58
2018-02-20T02:32:29.832Z,1037.56
2018-02-20T02:33:29.820Z,1037.56
2018-02-20T02:34:29.800Z,1037.55
2018-02-20T02:35:29.782Z,1037.49
2018-02-20T02:36:29.766Z,1037.5
2018-02-20T02:37:29.750Z,1037.47
2018-02-20T02:38:29.732Z,1037.48
2018-02-20T02:39:29.718Z,1037.54
2018-02-20T02:40:29.701Z,1037.5
2018-02-20T02:41:29.703Z,1037.51
2018-02-20T02:42:29.666Z,1037.5
2018-02-20T02:43:29.650Z,1037.51
2018-02-20T02:44:29.632Z,1037.47
2018-02-20T02:45:29.617Z,1037.49
2018-02-20T02:46:29.600Z,1037.48
2018-02-20T02:47:29.584Z,1037.51
2018-02-20T02:48:29.577Z,1037.51
2018-02-20T02:49:29.552Z,1037.54
2018-02-20T02:50:29.533Z,1037.54
2018-02-20T02:51:29.516Z,1037.55
2018-02-20T02:52:29.502Z,1037.56
2018-02-20T02:53:29.483Z,1037.55
2018-02-20T02:54:29.475Z,1037.55
2018-02-20T02:55:29.451Z,1037.52
2018-02-20T02:56:29.433Z,1037.49
2018-02-20T02:57:29.418Z,1037.53
2018-02-20T02:58:29.398Z,1037.58
2018-02-20T02:59:29.383Z,1037.51
2018-02-20T03:00:29.364Z,1037.51
2018-02-20T03:01:29.350Z,1037.57
2018-02-20T03:02:29.333Z,1037.58
2018-02-20T03:03:29.316Z,1037.55
2018-02-20T03:04:29.299Z,1037.61
2018-02-20T03:05:29.291Z,1037.56
2018-02-20T03:06:29.265Z,1037.61
2018-02-20T03:07:29.250Z,1037.59
2018-02-20T03:08:29.233Z,1037.58
2018-02-20T03:09:29.223Z,1037.51
2018-02-20T03:10:29.200Z,1037.5
2018-02-20T03:11:29.183Z,1037.48
2018-02-20T03:12:29.167Z,1037.48
2018-02-20T03:13:29.150Z,1037.45
2018-02-20T03:14:29.134Z,1037.46
2018-02-20T03:15:29.116Z,1037.45
2018-02-20T03:16:29.101Z,1037.48
2018-02-20T03:17:29.085Z,1037.45
2018-02-20T03:18:29.066Z,1037.46
2018-02-20T03:19:29.051Z,1037.45
2018-02-20T03:20:29.034Z,1037.42
2018-02-20T03:21:29.018Z,1037.46
2018-02-20T03:22:28.999Z,1037.46
2018-02-20T03:23:28.983Z,1037.48
2018-02-20T03:24:28.967Z,1037.46
2018-02-20T03:25:28.951Z,1037.48
2018-02-20T03:26:29.184Z,1037.49
2018-02-20T03:27:28.916Z,1037.45
2018-02-20T03:28:28.900Z,1037.46
2018-02-20T03:29:28.884Z,1037.5
2018-02-20T03:30:28.868Z,1037.45
2018-02-20T03:31:28.853Z,1037.53
2018-02-20T03:32:28.833Z,1037.48
2018-02-20T03:33:28.817Z,1037.55
2018-02-20T03:34:28.799Z,1037.56
2018-02-20T03:35:28.783Z,1037.55
2018-02-20T03:36:28.766Z,1037.61
2018-02-20T03:37:28.749Z,1037.6
2018-02-20T03:38:28.733Z,1037.62
2018-02-20T03:39:28.718Z,1037.64
2018-02-20T03:40:28.700Z,1037.64
2018-02-20T03:41:28.683Z,1037.69
2018-02-20T03:42:28.666Z,1037.66
2018-02-20T03:43:28.651Z,1037.68
2018-02-20T03:44:28.632Z,1037.66
2018-02-20T03:45:28.616Z,1037.66
2018-02-20T03:46:28.599Z,1037.72
2018-02-20T03:47:28.584Z,1037.69
2018-02-20T03:48:28.566Z,1037.71
2018-02-20T03:49:28.548Z,1037.68
2018-02-20T03:50:28.533Z,1037.64
2018-02-20T03:51:28.516Z,1037.68
2018-02-20T03:52:28.499Z,1037.7
2018-02-20T03:53:28.483Z,1037.65
2018-02-20T03:54:28.466Z,1037.64
2018-02-20T03:55:28.448Z,1037.69
2018-02-20T03:56:28.431Z,1037.66
2018-02-20T03:57:28.414Z,1037.67
2018-02-20T03:58:28.398Z,1037.68
2018-02-20T03:59:28.380Z,1037.67
2018-02-20T04:00:28.363Z,1037.7
2018-02-20T04:01:28.347Z,1037.72
2018-02-20T04:02:28.329Z,1037.73
2018-02-20T04:03:28.313Z,1037.75
2018-02-20T04:04:28.296Z,1037.77
2018-02-20T04:05:28.280Z,1037.76
2018-02-20T04:06:28.262Z,1037.8
2018-02-20T04:07:28.246Z,1037.77
2018-02-20T04:08:28.229Z,1037.82
2018-02-20T04:09:28.213Z,1037.83
2018-02-20T04:10:28.194Z,1037.9
2018-02-20T04:11:28.179Z,1037.88
2018-02-20T04:12:28.162Z,1037.88
2018-02-20T04:13:28.144Z,1037.93
2018-02-20T04:14:28.128Z,1037.9
2018-02-20T04:15:28.109Z,1037.92
2018-02-20T04:16:28.095Z,1037.97
2018-02-20T04:17:28.075Z,1037.93
2018-02-20T04:18:28.059Z,1037.95
2018-02-20T04:19:28.043Z,1037.95
2018-02-20T04:20:28.026Z,1037.94
2018-02-20T04:21:28.009Z,1037.95
2018-02-20T04:22:27.992Z,1037.96
2018-02-20T04:23:27.975Z,1037.96
2018-02-20T04:24:27.956Z,1037.97
2018-02-20T04:25:27.940Z,1037.98
2018-02-20T04:26:27.924Z,1038.03
2018-02-20T04:27:27.906Z,1038.04
2018-02-20T04:28:27.889Z,1037.98
2018-02-20T04:29:27.872Z,1038.01
2018-02-20T04:30:27.854Z,1038.02
2018-02-20T04:31:27.839Z,1038.01
2018-02-20T04:32:27.820Z,1038.01
2018-02-20T04:33:27.803Z,1037.95
2018-02-20T04:34:27.792Z,1038.01
2018-02-20T04:35:27.768Z,1037.94
2018-02-20T04:36:27.751Z,1037.94
2018-02-20T04:37:27.735Z,1037.93
2018-02-20T04:38:27.718Z,1037.97
2018-02-20T04:39:27.699Z,1037.98
2018-02-20T04:40:27.684Z,1037.95
2018-02-20T04:41:27.666Z,1038.02
2018-02-20T04:42:27.650Z,1037.97
2018-02-20T04:43:27.636Z,1037.99
2018-02-20T04:44:27.616Z,1037.99
2018-02-20T04:45:27.598Z,1038
2018-02-20T04:46:27.581Z,1037.99
2018-02-20T04:47:27.565Z,1038.01
2018-02-20T04:48:27.548Z,1038.02
2018-02-20T04:49:27.531Z,1038.04
2018-02-20T04:50:27.514Z,1038.03
2018-02-20T04:51:27.497Z,1038.04
2018-02-20T04:52:27.505Z,1037.97
2018-02-20T04:53:27.461Z,1038.02
2018-02-20T04:54:27.444Z,1038.01
2018-02-20T04:55:27.429Z,1037.99
2018-02-20T04:56:27.411Z,1037.98
2018-02-20T04:57:27.395Z,1037.99
2018-02-20T04:58:27.376Z,1038
2018-02-20T04:59:27.360Z,1038
2018-02-20T05:00:27.351Z,1038
2018-02-20T05:01:27.323Z,1038.01
2018-02-20T05:02:27.307Z,1038.01
2018-02-20T05:03:27.289Z,1038.05
2018-02-20T05:04:27.272Z,1038.07
2018-02-20T05:05:27.255Z,1038.12
2018-02-20T05:06:27.238Z,1038.08
2018-02-20T05:07:27.222Z,1038.1
2018-02-20T05:08:27.203Z,1038.1
2018-02-20T05:09:27.186Z,1038.09
2018-02-20T05:10:27.171Z,1038.09
2018-02-20T05:11:27.152Z,1038.04
2018-02-20T05:12:27.134Z,1038
2018-02-20T05:13:27.117Z,1038.02
2018-02-20T05:14:27.101Z,1038.04
2018-02-20T05:15:27.083Z,1038
2018-02-20T05:16:27.066Z,1037.99
2018-02-20T05:17:27.049Z,1038.01
2018-02-20T05:18:27.033Z,1037.93
2018-02-20T05:19:27.014Z,1037.93
2018-02-20T05:20:26.997Z,1037.93
2018-02-20T05:21:26.981Z,1037.88
2018-02-20T05:22:26.964Z,1037.94
2018-02-20T05:23:26.946Z,1037.92
2018-02-20T05:24:26.928Z,1037.96
2018-02-20T05:25:26.911Z,1037.94
2018-02-20T05:26:26.895Z,1037.94
2018-02-20T05:27:26.878Z,1037.96
2018-02-20T05:28:26.860Z,1037.96
2018-02-20T05:29:26.842Z,1037.94
2018-02-20T05:30:26.826Z,1037.99
2018-02-20T05:31:26.810Z,1037.96
2018-02-20T05:32:26.793Z,1037.98
2018-02-20T05:33:26.774Z,1038.01
2018-02-20T05:34:26.757Z,1038.02
2018-02-20T05:35:26.742Z,1038
2018-02-20T05:36:26.724Z,1038.06
2018-02-20T05:37:26.705Z,1038.05
2018-02-20T05:38:26.688Z,1038.07
2018-02-20T05:39:26.673Z,1038.07
2018-02-20T05:40:26.656Z,1038.1
2018-02-20T05:41:26.643Z,1038.07
2018-02-20T05:42:26.619Z,1038.09
2018-02-20T05:43:26.604Z,1038.13
2018-02-20T05:44:26.585Z,1038.13
2018-02-20T05:45:26.568Z,1038.15
2018-02-20T05:46:26.552Z,1038.18
2018-02-20T05:47:26.534Z,1038.16
2018-02-20T05:48:26.517Z,1038.17
2018-02-20T05:49:26.500Z,1038.18
2018-02-20T05:50:26.484Z,1038.14
2018-02-20T05:51:26.478Z,1038.17
2018-02-20T05:52:26.448Z,1038.23
2018-02-20T05:53:26.432Z,1038.21
2018-02-20T05:54:26.414Z,1038.26
2018-02-20T05:55:26.398Z,1038.27
2018-02-20T05:56:26.388Z,1038.27
2018-02-20T05:57:26.362Z,1038.27
2018-02-20T05:58:26.350Z,1038.26
2018-02-20T05:59:26.328Z,1038.23
2018-02-20T06:00:26.311Z,1038.25
2018-02-20T06:01:26.297Z,1038.22
2018-02-20T06:02:26.533Z,1038.21
2018-02-20T06:03:26.261Z,1038.25
2018-02-20T06:04:26.243Z,1038.24
2018-02-20T06:05:26.226Z,1038.22
2018-02-20T06:06:26.210Z,1038.22
2018-02-20T06:07:26.191Z,1038.17
2018-02-20T06:08:26.175Z,1038.22
2018-02-20T06:09:26.166Z,1038.24
2018-02-20T06:10:26.141Z,1038.27
2018-02-20T06:11:26.123Z,1038.32
2018-02-20T06:12:26.111Z,1038.35
2018-02-20T06:13:26.090Z,1038.3
2018-02-20T06:14:26.072Z,1038.34
2018-02-20T06:15:26.055Z,1038.36
2018-02-20T06:16:26.040Z,1038.38
2018-02-20T06:17:26.024Z,1038.36
2018-02-20T06:18:26.004Z,1038.39
2018-02-20T06:19:25.987Z,1038.37
2018-02-20T06:20:25.972Z,1038.38
2018-02-20T06:21:25.952Z,1038.42
2018-02-20T06:22:25.937Z,1038.39
2018-02-20T06:23:25.919Z,1038.38
2018-02-20T06:24:25.905Z,1038.44
2018-02-20T06:25:25.884Z,1038.44
2018-02-20T06:26:25.872Z,1038.44
2018-02-20T06:27:25.854Z,1038.45
2018-02-20T06:28:25.834Z,1038.46
2018-02-20T06:29:25.817Z,1038.44
2018-02-20T06:30:25.800Z,1038.41
2018-02-20T06:31:25.782Z,1038.4
2018-02-20T06:32:25.765Z,1038.41
2018-02-20T06:33:25.747Z,1038.35
2018-02-20T06:34:25.747Z,1038.36
2018-02-20T06:35:25.727Z,1038.3
2018-02-20T06:36:25.695Z,1038.32
2018-02-20T06:37:25.679Z,1038.32
2018-02-20T06:38:25.662Z,1038.29
2018-02-20T06:39:25.648Z,1038.29
2018-02-20T06:40:25.628Z,1038.32
2018-02-20T06:41:25.613Z,1038.31
2018-02-20T06:42:25.593Z,1038.28
2018-02-20T06:43:25.576Z,1038.3
2018-02-20T06:44:25.557Z,1038.32
2018-02-20T06:45:25.542Z,1038.29
2018-02-20T06:46:25.525Z,1038.31
2018-02-20T06:47:25.507Z,1038.3
2018-02-20T06:48:25.490Z,1038.26
2018-02-20T06:49:25.473Z,1038.28
2018-02-20T06:50:25.455Z,1038.22
2018-02-20T06:51:25.438Z,1038.2
2018-02-20T06:52:25.423Z,1038.17
2018-02-20T06:53:25.406Z,1038.13
2018-02-20T06:54:25.386Z,1038.06
2018-02-20T06:55:25.370Z,1038.02
2018-02-20T06:56:25.353Z,1037.95
2018-02-20T06:57:25.341Z,1037.87
2018-02-20T06:58:25.319Z,1037.8
2018-02-20T06:59:25.305Z,1037.66
2018-02-20T07:00:25.285Z,1037.58
2018-02-20T07:01:25.271Z,1037.55
2018-02-20T07:02:25.252Z,1037.44
2018-02-20T07:03:25.236Z,1037.35
2018-02-20T07:04:25.218Z,1037.29
2018-02-20T07:05:25.204Z,1037.21
2018-02-20T07:06:25.185Z,1037.17
2018-02-20T07:07:25.170Z,1037.12
2018-02-20T07:08:25.153Z,1037.02
2018-02-20T07:09:25.148Z,1036.94
2018-02-20T07:10:25.120Z,1036.8
2018-02-20T07:11:25.104Z,1036.77
2018-02-20T07:12:25.091Z,1036.67
2018-02-20T07:13:25.072Z,1036.56
2018-02-20T07:14:25.056Z,1036.49
2018-02-20T07:15:25.070Z,1036.4
2018-02-20T07:16:25.023Z,1036.33
2018-02-20T07:17:25.008Z,1036.23
2018-02-20T07:18:24.992Z,1036.23
2018-02-20T07:19:24.982Z,1036.19
2018-02-20T07:20:24.961Z,1036.21
2018-02-20T07:21:24.945Z,1036.19
2018-02-20T07:22:24.929Z,1036.2
2018-02-20T07:23:24.915Z,1036.16
2018-02-20T07:24:24.898Z,1036.18
2018-02-20T07:25:24.883Z,1036.2
2018-02-20T07:26:24.868Z,1036.16
2018-02-20T07:27:24.856Z,1036.16
2018-02-20T07:28:24.837Z,1036.12
2018-02-20T07:29:24.824Z,1036.05
2018-02-20T07:30:24.808Z,1035.97
2018-02-20T07:31:24.791Z,1036.02
2018-02-20T07:32:24.780Z,1035.97
2018-02-20T07:33:24.761Z,1035.96
2018-02-20T07:34:24.751Z,1035.87
2018-02-20T07:35:24.739Z,1035.82
2018-02-20T07:36:24.717Z,1035.8
2018-02-20T07:37:24.701Z,1035.78
2018-02-20T07:38:24.732Z,1035.72
2018-02-20T07:39:24.671Z,1035.63
2018-02-20T07:40:24.658Z,1035.6
2018-02-20T07:41:24.644Z,1035.6
2018-02-20T07:42:24.626Z,1035.55
2018-02-20T07:43:24.613Z,1035.58
2018-02-20T07:44:24.598Z,1035.54
2018-02-20T07:45:24.584Z,1035.48
2018-02-20T07:46:24.568Z,1035.44
2018-02-20T07:47:24.554Z,1035.39
2018-02-20T07:48:24.541Z,1035.33
2018-02-20T07:49:24.524Z,1035.28
2018-02-20T07:50:24.511Z,1035.43
2018-02-20T07:51:24.497Z,1035.54
2018-02-20T07:52:24.483Z,1035.74
2018-02-20T07:53:24.468Z,1035.86
2018-02-20T07:54:24.454Z,1036.06
2018-02-20T07:55:24.441Z,1036.29
2018-02-20T07:56:24.436Z,1036.38
2018-02-20T07:57:24.411Z,1036.5
2018-02-20T07:58:24.396Z,1036.55
2018-02-20T07:59:24.385Z,1036.65
2018-02-20T08:00:24.368Z,1036.66
2018-02-20T08:01:24.353Z,1036.86
2018-02-20T08:02:24.337Z,1036.86
2018-02-20T08:03:24.321Z,1036.95
2018-02-20T08:04:24.307Z,1037
2018-02-20T08:05:24.292Z,1037.06
2018-02-20T08:06:24.278Z,1037.08
2018-02-20T08:07:24.264Z,1037.16
2018-02-20T08:08:24.248Z,1037.24
2018-02-20T08:09:24.236Z,1037.24
2018-02-20T08:10:24.217Z,1037.28
2018-02-20T08:11:24.206Z,1037.25
2018-02-20T08:12:24.186Z,1037.26
2018-02-20T08:13:24.171Z,1037.26
2018-02-20T08:14:24.155Z,1037.24
2018-02-20T08:15:24.138Z,1037.27
2018-02-20T08:16:24.128Z,1037.27
2018-02-20T08:17:24.112Z,1037.26
2018-02-20T08:18:24.092Z,1037.25
2018-02-20T08:19:24.077Z,1037.29
2018-02-20T08:20:24.076Z,1037.24
2018-02-20T08:21:24.046Z,1037.28
2018-02-20T08:22:24.030Z,1037.26
2018-02-20T08:23:24.027Z,1037.26
2018-02-20T08:24:23.999Z,1037.25
2018-02-20T08:25:23.982Z,1037.29
2018-02-20T08:26:23.967Z,1037.22
2018-02-20T08:27:23.952Z,1037.26
2018-02-20T08:28:23.940Z,1037.32
2018-02-20T08:29:23.920Z,1037.28
2018-02-20T08:30:23.904Z,1037.33
2018-02-20T08:31:23.890Z,1037.3
2018-02-20T08:32:23.875Z,1037.36
2018-02-20T08:33:23.858Z,1037.28
2018-02-20T08:34:23.843Z,1037.28
2018-02-20T08:35:23.827Z,1037.27
2018-02-20T08:36:23.858Z,1037.26
2018-02-20T08:37:23.794Z,1037.36
2018-02-20T08:38:24.030Z,1037.34
2018-02-20T08:39:23.764Z,1037.34
2018-02-20T08:40:23.748Z,1037.39
2018-02-20T08:41:23.732Z,1037.33
2018-02-20T08:42:23.716Z,1037.41
2018-02-20T08:43:23.702Z,1037.33
2018-02-20T08:44:23.685Z,1037.35
2018-02-20T08:45:23.672Z,1037.36
2018-02-20T08:46:23.656Z,1037.36
2018-02-20T08:47:23.642Z,1037.31
2018-02-20T08:48:23.622Z,1037.32
2018-02-20T08:49:23.606Z,1037.25
2018-02-20T08:50:23.590Z,1037.29
2018-02-20T08:51:23.574Z,1037.28
2018-02-20T08:52:23.559Z,1037.26
2018-02-20T08:53:23.544Z,1037.2
2018-02-20T08:54:23.530Z,1037.22
2018-02-20T08:55:23.516Z,1037.19
2018-02-20T08:56:23.497Z,1037.19
2018-02-20T08:57:23.484Z,1037.1
2018-02-20T08:58:23.465Z,1037.04
2018-02-20T08:59:23.452Z,1037
2018-02-20T09:00:23.434Z,1036.98
2018-02-20T09:01:23.418Z,1036.89
2018-02-20T09:02:23.401Z,1036.84
2018-02-20T09:03:23.387Z,1036.8
2018-02-20T09:04:23.371Z,1036.73
2018-02-20T09:05:23.356Z,1036.67
2018-02-20T09:06:23.340Z,1036.61
2018-02-20T09:07:23.329Z,1036.61
2018-02-20T09:08:23.310Z,1036.53
2018-02-20T09:09:23.297Z,1036.49
2018-02-20T09:10:23.278Z,1036.48
2018-02-20T09:11:23.332Z,1036.38
2018-02-20T09:12:23.247Z,1036.41
2018-02-20T09:13:23.232Z,1036.36
2018-02-20T09:14:23.215Z,1036.34
2018-02-20T09:15:23.201Z,1036.28
2018-02-20T09:16:23.186Z,1036.27
2018-02-20T09:17:23.170Z,1036.2
2018-02-20T09:18:23.156Z,1036.14
2018-02-20T09:19:23.140Z,1036.08
2018-02-20T09:20:23.126Z,1035.97
2018-02-20T09:21:23.109Z,1035.93
2018-02-20T09:22:23.096Z,1035.87
2018-02-20T09:23:23.079Z,1035.79
2018-02-20T09:24:23.065Z,1035.77
2018-02-20T09:25:23.050Z,1035.76
2018-02-20T09:26:23.041Z,1035.73
2018-02-20T09:27:23.021Z,1035.64
2018-02-20T09:28:23.006Z,1035.62
2018-02-20T09:29:22.992Z,1035.55
2018-02-20T09:30:22.977Z,1035.54
2018-02-20T09:31:22.974Z,1035.51
2018-02-20T09:32:22.947Z,1035.48
2018-02-20T09:33:22.935Z,1035.5
2018-02-20T09:34:22.920Z,1035.47
2018-02-20T09:35:22.905Z,1035.45
2018-02-20T09:36:22.900Z,1035.46
2018-02-20T09:37:22.876Z,1035.44
2018-02-20T09:38:22.864Z,1035.34
2018-02-20T09:39:22.847Z,1035.33
2018-02-20T09:40:22.833Z,1035.24
2018-02-20T09:41:22.817Z,1035.18
2018-02-20T09:42:22.805Z,1035.12
2018-02-20T09:43:22.789Z,1035.12
2018-02-20T09:44:22.776Z,1035.08
2018-02-20T09:45:22.762Z,1035.03
2018-02-20T09:46:22.748Z,1035.03
2018-02-20T09:47:22.732Z,1034.95
2018-02-20T09:48:22.719Z,1034.93
2018-02-20T09:49:22.706Z,1034.95
2018-02-20T09:50:22.693Z,1034.97
2018-02-20T09:51:22.683Z,1034.94
2018-02-20T09:52:22.666Z,1034.86
2018-02-20T09:53:22.649Z,1034.9
2018-02-20T09:54:22.636Z,1034.9
2018-02-20T09:55:22.622Z,1034.9
2018-02-20T09:56:22.610Z,1034.87
2018-02-20T09:57:22.594Z,1034.88
2018-02-20T09:58:22.582Z,1034.86
2018-02-20T09:59:22.568Z,1034.85
2018-02-20T10:00:22.554Z,1034.81
2018-02-20T10:01:22.541Z,1034.87
2018-02-20T10:02:22.528Z,1034.8
2018-02-20T10:03:22.514Z,1034.79
2018-02-20T10:04:22.505Z,1034.75
2018-02-20T10:05:22.487Z,1034.72
2018-02-20T10:06:22.473Z,1034.7
2018-02-20T10:07:22.460Z,1034.73
2018-02-20T10:08:22.446Z,1034.68
2018-02-20T10:09:22.433Z,1034.73
2018-02-20T10:10:22.420Z,1034.77
2018-02-20T10:11:22.405Z,1034.71
2018-02-20T10:12:22.391Z,1034.73
2018-02-20T10:13:22.385Z,1034.73
2018-02-20T10:14:22.366Z,1034.73
2018-02-20T10:15:22.352Z,1034.76
2018-02-20T10:16:22.348Z,1034.73
2018-02-20T10:17:22.328Z,1034.76
2018-02-20T10:18:22.314Z,1034.74
2018-02-20T10:19:22.299Z,1034.73
2018-02-20T10:20:22.286Z,1034.72
2018-02-20T10:21:22.274Z,1034.81
2018-02-20T10:22:22.262Z,1034.8
2018-02-20T10:23:22.246Z,1034.78
2018-02-20T10:24:22.233Z,1034.79
2018-02-20T10:25:22.222Z,1034.81
2018-02-20T10:26:22.208Z,1034.84
2018-02-20T10:27:22.194Z,1034.83
2018-02-20T10:28:22.183Z,1034.85
2018-02-20T10:29:22.172Z,1034.81
2018-02-20T10:30:22.154Z,1034.91
2018-02-20T10:31:22.142Z,1034.85
2018-02-20T10:32:22.141Z,1034.93
2018-02-20T10:33:22.114Z,1034.96
2018-02-20T10:34:22.102Z,1035.01
2018-02-20T10:35:22.099Z,1035.01
2018-02-20T10:36:22.088Z,1035.06
2018-02-20T10:37:22.062Z,1035.1
2018-02-20T10:38:22.048Z,1035.1
2018-02-20T10:39:22.036Z,1035.1
2018-02-20T10:40:22.023Z,1035.13
2018-02-20T10:41:22.008Z,1035.15
2018-02-20T10:42:21.994Z,1035.11
2018-02-20T10:43:21.982Z,1035.17
2018-02-20T10:44:21.976Z,1035.17
2018-02-20T10:45:21.956Z,1035.1
2018-02-20T10:46:21.941Z,1035.08
2018-02-20T10:47:21.930Z,1035
2018-02-20T10:48:21.919Z,1035.01
2018-02-20T10:49:21.910Z,1034.95
2018-02-20T10:50:21.889Z,1034.94
2018-02-20T10:51:21.875Z,1034.89
2018-02-20T10:52:21.861Z,1034.93
2018-02-20T10:53:21.848Z,1034.92
2018-02-20T10:54:21.835Z,1034.92
2018-02-20T10:55:21.820Z,1035.04
2018-02-20T10:56:21.808Z,1035.09
2018-02-20T10:57:21.795Z,1035.13
2018-02-20T10:58:21.798Z,1035.12
2018-02-20T10:59:21.767Z,1035.16
2018-02-20T11:00:21.771Z,1035.14
2018-02-20T11:01:21.742Z,1035.17
2018-02-20T11:02:21.732Z,1035.16
2018-02-20T11:03:21.716Z,1035.15
2018-02-20T11:04:21.702Z,1035.13
2018-02-20T11:05:21.690Z,1035.22
2018-02-20T11:06:21.674Z,1035.18
2018-02-20T11:07:21.662Z,1035.22
2018-02-20T11:08:21.649Z,1035.2
2018-02-20T11:09:21.635Z,1035.22
2018-02-20T11:10:21.624Z,1035.2
2018-02-20T11:11:21.609Z,1035.23
2018-02-20T11:12:21.594Z,1035.21
2018-02-20T11:13:21.612Z,1035.11
2018-02-20T11:14:21.817Z,1035.13
2018-02-20T11:15:21.554Z,1035.09
2018-02-20T11:16:21.539Z,1035.1
2018-02-20T11:17:21.526Z,1035.1
2018-02-20T11:18:21.513Z,1035.14
2018-02-20T11:19:21.501Z,1035.05
2018-02-20T11:20:21.491Z,1035.13
2018-02-20T11:21:21.473Z,1035.04
2018-02-20T11:22:21.459Z,1035.2
2018-02-20T11:23:21.446Z,1035.11
2018-02-20T11:24:21.436Z,1035.16
2018-02-20T11:25:21.419Z,1035.17
2018-02-20T11:26:21.408Z,1035.14
2018-02-20T11:27:21.393Z,1035.15
2018-02-20T11:28:21.377Z,1035.15
2018-02-20T11:29:21.368Z,1035.13
2018-02-20T11:30:21.351Z,1035.18
2018-02-20T11:31:21.338Z,1035.13
2018-02-20T11:32:21.324Z,1035.27
2018-02-20T11:33:21.314Z,1035.16
2018-02-20T11:34:21.297Z,1035.2
2018-02-20T11:35:21.281Z,1035.11
2018-02-20T11:36:21.269Z,1035.15
2018-02-20T11:37:21.255Z,1035.11
2018-02-20T11:38:21.243Z,1035.19
2018-02-20T11:39:21.238Z,1035.18
2018-02-20T11:40:21.217Z,1035.15
2018-02-20T11:41:21.202Z,1035.14
2018-02-20T11:42:21.188Z,1035.06
2018-02-20T11:43:21.176Z,1035.07
2018-02-20T11:44:21.160Z,1035.07
2018-02-20T11:45:21.398Z,1035.07
2018-02-20T11:46:21.134Z,1035.05
2018-02-20T11:47:21.120Z,1035.05
2018-02-20T11:48:21.110Z,1034.97
2018-02-20T11:49:21.095Z,1035.05
2018-02-20T11:50:21.134Z,1035.03
2018-02-20T11:51:21.066Z,1034.97
2018-02-20T11:52:21.053Z,1034.95
2018-02-20T11:53:21.039Z,1034.91
2018-02-20T11:54:21.031Z,1034.88
2018-02-20T11:55:21.020Z,1034.83
2018-02-20T11:56:21.000Z,1034.83
2018-02-20T11:57:20.983Z,1034.82
2018-02-20T11:58:20.973Z,1034.76
2018-02-20T11:59:20.959Z,1034.63
2018-02-20T12:00:20.944Z,1034.66
2018-02-20T12:01:20.988Z,1034.55
2018-02-20T12:02:20.918Z,1034.57
2018-02-20T12:03:20.904Z,1034.52
2018-02-20T12:04:20.890Z,1034.6
2018-02-20T12:05:20.877Z,1034.52
2018-02-20T12:06:20.864Z,1034.47
2018-02-20T12:07:20.851Z,1034.49
2018-02-20T12:08:20.836Z,1034.45
2018-02-20T12:09:20.838Z,1034.41